Date,TemperatureHighF,TemperatureAvgF,TemperatureLowF,DewpointHighF,DewpointAvgF,DewpointLowF,HumidityHigh,HumidityAvg,HumidityLow,PressureMaxIn,PressureMinIn,WindSpeedMaxMPH,WindSpeedAvgMPH,GustSpeedMaxMPH,PrecipitationSumIn
2013-1-2,45.0,41.8,38.0,7.0,-1.6,-12.0,22,16,10,0.00,40.00,6,4,12,0.00
2013-1-3,43.0,37.8,33.0,8.0,-3.0,-13.0,31,18,10,0.00,40.00,5,3,8,0.00
2013-1-4,43.0,37.0,32.0,26.0,12.8,-9.0,78,40,14,0.00,40.00,4,2,7,0.00
2013-1-5,37.0,32.6,27.0,28.0,22.6,12.0,82,67,44,0.00,40.00,16,7,28,0.00
2013-1-6,27.0,23.9,22.0,23.0,20.2,12.0,94,85,51,0.00,40.00,6,2,12,0.00
2013-1-7,43.0,33.4,23.0,28.0,20.9,7.0,84,61,31,0.00,40.00,11,4,23,0.00
2013-1-8,53.0,45.2,37.0,26.0,22.0,2.0,61,41,16,0.00,40.00,5,3,11,0.00
2013-1-9,45.0,33.7,15.0,26.0,19.3,-10.0,95,61,9,0.00,40.00,19,9,29,0.00
2013-1-10,19.0,12.9,9.0,17.0,10.4,6.0,91,90,88,0.00,40.00,3,2,8,0.00
2013-1-11,16.0,11.5,7.0,13.0,8.9,4.0,90,89,87,0.00,40.00,7,2,10,0.00
2013-1-12,22.0,13.6,6.0,12.0,1.9,-15.0,87,61,27,0.00,40.00,8,2,14,0.00
2013-1-13,24.0,14.4,8.0,-3.0,-11.3,-21.0,50,31,17,0.00,40.00,7,3,19,0.00
2013-1-14,28.0,10.7,7.0,20.0,-8.7,-13.0,70,41,30,0.00,40.00,7,5,22,0.00
2013-1-15,48.0,41.7,35.0,17.0,12.4,5.0,41,31,17,0.00,40.00,12,7,25,0.00
2013-1-16,47.0,43.4,39.0,9.0,-7.0,-19.0,28,12,6,0.00,40.00,11,9,21,0.00
2013-1-17,54.0,47.4,43.0,-7.0,-15.2,-23.0,8,7,5,0.00,40.00,10,5,18,0.00
2013-1-18,52.0,47.6,44.0,7.0,-12.9,-26.0,17,8,4,0.00,40.00,5,2,9,0.00
2013-1-19,52.0,45.8,41.0,15.0,-5.6,-23.0,34,13,5,0.00,40.00,7,3,12,0.00
2013-1-20,47.0,43.1,39.0,-1.0,-8.4,-21.0,18,11,6,0.00,40.00,10,5,17,0.00
2013-1-21,54.0,47.5,42.0,16.0,-0.6,-16.0,27,14,7,0.00,40.00,7,5,12,0.00
2013-1-22,49.0,45.9,40.0,16.0,2.0,-7.0,36,17,9,0.00,40.00,10,4,22,0.00
2013-1-23,40.0,36.4,31.0,31.0,9.4,-6.0,94,39,14,0.00,40.00,15,9,25,0.00
2013-1-24,38.0,35.6,33.0,35.0,33.5,31.0,97,91,80,0.00,40.00,9,4,21,0.00
2013-1-25,38.0,35.4,34.0,37.0,34.4,33.0,97,97,93,0.00,40.00,6,3,11,0.00
2013-1-26,35.0,30.6,23.0,33.0,29.3,22.0,97,95,83,0.00,40.00,11,4,20,0.00
2013-1-27,23.0,18.2,14.0,21.0,16.2,10.0,95,92,84,0.00,40.00,7,2,15,0.00
2013-1-28,28.0,18.9,13.0,15.0,10.9,8.0,85,71,52,0.00,40.00,4,1,14,0.00
2013-1-29,34.0,34.0,34.0,25.0,25.0,25.0,68,68,68,0.00,40.00,3,3,10,0.00
2013-1-31,50.0,44.8,40.0,12.0,5.2,0.0,26,19,16,0.00,40.00,5,2,8,0.00
2013-2-1,42.0,42.0,42.0,13.0,13.0,13.0,31,31,31,0.00,40.00,3,3,4,0.00
2013-2-2,44.0,40.8,38.0,15.0,1.3,-20.0,34,21,6,0.00,40.00,5,3,9,0.00
2013-2-3,44.0,38.2,34.0,16.0,9.4,-1.0,47,31,19,0.00,40.00,8,4,14,0.00
2013-2-4,50.0,41.3,36.0,28.0,13.4,2.0,62,34,20,0.00,40.00,8,2,13,0.00
2013-2-5,40.0,34.0,26.0,26.0,16.0,4.0,96,50,26,0.00,40.00,11,5,18,0.00
2013-2-6,41.0,31.4,24.0,24.0,3.8,-22.0,71,35,9,0.00,40.00,9,2,13,0.00
2013-2-7,29.0,21.7,15.0,21.0,10.1,-10.0,94,69,19,0.00,40.00,9,4,17,0.00
2013-2-8,23.0,16.4,13.0,15.0,11.1,8.0,91,80,59,0.00,40.00,6,2,12,0.00
2013-2-9,32.0,21.2,14.0,19.0,8.1,-2.0,82,59,24,0.00,40.00,7,4,15,0.00
2013-2-10,28.0,22.9,18.0,13.0,9.9,6.0,72,57,42,0.00,40.00,8,5,22,0.00
2013-2-11,38.0,25.6,17.0,10.0,4.9,-2.0,62,42,27,0.00,40.00,7,4,18,0.00
2013-2-12,42.0,33.0,25.0,23.0,12.4,2.0,62,42,29,0.00,40.00,7,3,14,0.00
2013-2-13,42.0,36.4,32.0,20.0,17.9,13.0,57,47,39,0.00,40.00,8,4,19,0.00
2013-2-14,45.0,36.5,32.0,20.0,15.1,3.0,56,42,23,0.00,40.00,10,6,20,0.00
2013-2-15,52.0,44.4,38.0,22.0,11.2,-3.0,43,27,14,0.00,40.00,10,4,19,0.00
2013-2-16,45.0,39.2,32.0,25.0,9.6,-9.0,70,34,11,0.00,40.00,5,2,10,0.00
2013-2-17,42.0,34.7,30.0,24.0,14.6,5.0,71,45,30,0.00,40.00,3,2,8,0.00
2013-2-18,37.0,31.3,25.0,24.0,18.5,12.0,96,62,40,0.00,40.00,11,4,22,0.00
2013-2-19,25.0,17.7,12.0,24.0,15.6,10.0,96,92,83,0.00,40.00,12,6,24,0.00
2013-2-20,30.0,20.5,16.0,21.0,14.8,4.0,95,81,34,0.00,40.00,8,4,19,0.00
2013-2-21,29.0,21.3,16.0,21.0,13.2,4.0,94,74,33,0.00,40.00,11,3,21,0.00
2013-2-22,43.0,29.5,23.0,24.0,15.8,7.0,88,59,25,0.00,40.00,4,2,8,0.00
2013-2-23,27.0,22.3,16.0,25.0,17.3,5.0,96,82,58,0.00,40.00,7,4,21,0.00
2013-2-24,40.0,29.5,16.0,9.0,1.6,-10.0,62,33,14,0.00,40.00,8,4,21,0.00
2013-2-25,37.0,30.2,25.0,22.0,11.0,-6.0,85,47,21,0.00,40.00,4,2,12,0.00
2013-2-26,42.0,32.8,26.0,7.0,-6.5,-24.0,41,19,9,0.00,40.00,6,4,15,0.00
2013-2-27,42.0,34.6,30.0,19.0,5.6,-11.0,60,32,14,0.00,40.00,4,2,11,0.00
2013-2-28,45.0,36.9,30.0,29.0,22.1,6.0,74,56,35,0.00,40.00,5,2,9,0.00
2013-3-1,52.0,43.5,39.0,33.0,25.7,19.0,69,50,30,0.00,40.00,7,3,11,0.00
2013-3-2,48.0,42.0,35.0,27.0,20.5,15.0,72,43,32,0.00,40.00,12,6,22,0.00
2013-3-3,35.0,30.1,27.0,31.0,29.0,26.0,97,96,72,0.00,40.00,12,5,21,0.00
2013-3-4,44.0,32.4,25.0,35.0,27.9,22.0,97,84,58,0.00,40.00,9,2,17,0.00
2013-3-5,36.0,30.9,26.0,30.0,26.9,22.0,97,86,67,0.00,40.00,20,14,36,0.00
2013-3-6,26.0,21.5,18.0,25.0,20.2,16.0,96,94,92,0.00,40.00,18,10,36,0.00
2013-3-7,25.0,22.3,21.0,24.0,20.8,19.0,95,94,93,0.00,40.00,6,2,11,0.00
2013-3-8,33.0,24.2,19.0,26.0,21.0,18.0,95,88,65,0.00,40.00,7,1,11,0.00
2013-3-9,36.0,28.2,21.0,21.0,14.1,1.0,94,60,28,0.00,40.00,10,3,22,0.00
2013-3-10,52.0,39.5,27.0,27.0,6.9,-7.0,49,27,12,0.00,40.00,8,4,14,0.00
2013-3-11,54.0,47.6,40.0,29.0,17.2,-1.0,54,32,15,0.00,40.00,5,2,8,0.00
2013-3-12,57.0,49.2,42.0,37.0,26.5,14.0,68,44,24,0.00,40.00,4,2,10,0.00
2013-3-13,58.0,48.5,45.0,35.0,25.1,9.0,64,41,20,0.00,40.00,7,4,15,0.00
2013-3-14,55.0,50.1,47.0,23.0,16.6,7.0,32,26,18,0.00,40.00,10,6,21,0.00
2013-3-15,52.0,45.9,43.0,25.0,20.1,11.0,43,36,26,0.00,40.00,4,2,8,0.00
2013-3-16,47.0,40.7,32.0,28.0,16.5,-11.0,78,41,10,0.00,40.00,5,2,11,0.00
2013-3-17,46.0,36.6,31.0,30.0,20.1,3.0,79,55,20,0.00,40.00,3,2,9,0.00
2013-3-18,45.0,37.7,33.0,30.0,12.3,2.0,76,36,23,0.00,40.00,5,2,13,0.00
2013-3-19,43.0,34.8,30.0,32.0,26.8,14.0,97,74,41,0.00,40.00,6,4,10,0.00
2013-3-20,32.0,30.7,29.0,31.0,30.3,29.0,97,97,97,0.00,40.00,11,6,19,0.00
2013-3-21,38.0,33.5,31.0,33.0,29.6,24.0,96,86,76,0.00,40.00,4,2,8,0.00
2013-3-22,41.0,34.4,29.0,24.0,5.8,-19.0,76,35,10,0.00,40.00,9,3,17,0.00
2013-3-23,45.0,37.3,31.0,20.0,1.6,-24.0,56,26,7,0.00,40.00,4,2,13,0.00
2013-3-24,48.0,39.8,33.0,29.0,21.0,15.0,70,48,37,0.00,40.00,3,2,10,0.00
2013-3-25,48.0,40.4,34.0,33.0,11.7,-3.0,88,34,14,0.00,40.00,7,4,12,0.00
2013-3-26,38.0,33.8,31.0,32.0,25.8,13.0,97,74,45,0.00,40.00,10,3,18,0.00
2013-3-27,43.0,34.6,31.0,34.0,31.0,28.0,97,87,66,0.00,40.00,9,4,15,0.00
2013-3-28,41.0,34.3,32.0,34.0,30.7,27.0,97,88,67,0.00,40.00,9,5,17,0.00
2013-3-29,51.0,40.5,33.0,37.0,28.3,23.0,83,64,37,0.00,40.00,5,3,10,0.00
2013-3-30,52.0,43.1,38.0,35.0,29.6,24.0,89,60,40,0.00,40.00,7,4,13,0.00
2013-3-31,41.0,32.1,29.0,33.0,30.0,27.0,97,91,74,0.00,40.00,9,4,21,0.00
2013-4-1,33.0,30.0,28.0,31.0,28.8,27.0,97,96,93,0.00,40.00,6,2,12,0.00
2013-4-2,47.0,38.1,29.0,38.0,29.9,24.0,93,74,47,0.00,40.00,4,2,7,0.00
2013-4-3,53.0,45.1,39.0,38.0,27.1,8.0,79,51,17,0.00,40.00,7,3,11,0.00
2013-4-4,37.0,34.5,32.0,36.0,33.8,32.0,97,97,96,0.00,40.00,13,8,28,0.00
2013-4-5,41.0,33.9,29.0,33.0,30.5,28.0,98,88,69,0.00,40.00,5,3,12,0.00
2013-4-6,41.0,34.6,32.0,33.0,31.6,31.0,97,90,67,0.00,40.00,5,3,11,0.00
2013-4-7,41.0,32.8,26.0,33.0,30.1,25.0,97,91,67,0.00,40.00,6,4,18,0.00
2013-4-8,30.0,25.1,22.0,25.0,19.9,14.0,96,81,56,0.00,40.00,7,3,20,0.00
2013-4-9,39.0,29.7,22.0,15.0,9.1,1.0,67,45,22,0.00,40.00,11,6,32,0.00
2013-4-10,56.0,44.4,35.0,34.0,20.7,8.0,64,39,28,0.00,40.00,9,4,22,0.00
2013-4-11,44.0,42.3,40.0,37.0,25.8,22.0,76,53,44,0.00,40.00,6,4,12,0.00
2013-4-12,54.0,45.2,39.0,38.0,26.7,14.0,81,51,27,0.00,40.00,6,3,13,0.00
2013-4-13,49.0,42.8,37.0,36.0,30.7,24.0,87,63,46,0.00,40.00,7,3,13,0.00
2013-4-14,44.0,36.8,30.0,33.0,26.9,21.0,96,69,39,0.00,40.00,6,3,15,0.00
2013-4-15,30.0,25.9,19.0,29.0,23.9,18.0,97,92,72,0.00,40.00,9,4,18,0.00
2013-4-16,27.0,22.2,18.0,18.0,15.0,10.0,93,75,49,0.00,40.00,6,3,17,0.00
2013-4-17,33.0,24.0,16.0,14.0,8.3,3.0,82,54,30,0.00,40.00,8,5,17,0.00
2013-4-18,48.0,37.6,27.0,28.0,11.9,-3.0,67,36,21,0.00,40.00,12,5,26,0.00
2013-4-19,49.0,40.5,38.0,31.0,21.8,14.0,70,48,35,0.00,40.00,4,2,10,0.00
2013-4-20,57.0,44.9,36.0,33.0,26.3,13.0,69,51,21,0.00,40.00,5,2,11,0.00
2013-4-21,59.0,50.8,44.0,36.0,28.0,10.0,59,43,21,0.00,40.00,4,2,11,0.00
2013-4-22,59.0,49.9,40.0,38.0,28.0,18.0,56,44,25,0.00,40.00,5,2,11,0.00
2013-4-23,59.0,43.6,33.0,30.0,14.9,1.0,53,32,14,0.00,40.00,15,7,24,0.00
2013-4-24,50.0,42.4,37.0,21.0,8.8,3.0,41,26,20,0.00,40.00,10,7,20,0.00
2013-4-25,54.0,46.8,43.0,28.0,17.2,4.0,54,31,20,0.00,40.00,7,3,14,0.00
2013-4-26,59.0,52.3,46.0,36.0,23.5,12.0,45,33,17,0.00,40.00,5,2,10,0.00
2013-4-27,62.0,54.9,50.0,34.0,27.2,21.0,55,35,24,0.00,40.00,7,2,13,0.00
2013-4-28,63.0,55.5,48.0,41.0,21.4,-8.0,64,31,8,0.00,40.00,3,2,11,0.00
2013-4-29,63.0,56.0,47.0,38.0,32.6,27.0,60,42,33,0.00,40.00,5,3,11,0.00
2013-4-30,57.0,49.3,39.0,41.0,32.3,1.0,69,53,19,0.00,40.00,9,3,18,0.00
2013-5-1,52.0,42.7,34.0,7.0,-1.1,-7.0,19,15,12,0.00,40.00,17,11,31,0.00
2013-5-2,57.0,48.6,44.0,15.0,1.9,-7.0,19,14,11,0.00,40.00,8,6,17,0.00
2013-5-3,63.0,57.4,51.0,34.0,28.5,9.0,42,34,18,0.00,40.00,7,3,14,0.00
2013-5-4,56.0,49.0,42.0,26.0,17.2,9.0,52,29,18,0.00,40.00,9,6,17,0.00
2013-5-5,50.0,43.1,36.0,37.0,30.6,22.0,96,64,39,0.00,40.00,9,5,17,0.00
2013-5-6,36.0,33.4,31.0,35.0,31.8,30.0,96,94,88,0.00,40.00,4,1,7,0.00
2013-5-7,36.0,33.7,31.0,34.0,32.3,31.0,97,94,87,0.00,40.00,2,1,6,0.00
2013-5-8,43.0,37.8,32.0,41.0,36.6,32.0,97,95,88,0.00,40.00,4,2,8,0.00
2013-5-9,53.0,46.0,38.0,46.0,39.6,32.0,96,79,56,0.00,40.00,5,3,10,0.00
2013-5-10,62.0,55.5,47.0,48.0,37.5,30.0,86,53,30,0.00,40.00,5,3,13,0.00
2013-5-11,65.0,57.3,52.0,44.0,36.7,29.0,65,48,32,0.00,40.00,3,2,11,0.00
2013-5-12,65.0,60.9,54.0,36.0,31.6,27.0,41,33,26,0.00,40.00,4,3,12,0.00
2013-5-13,65.0,58.2,54.0,34.0,28.3,21.0,44,32,26,0.00,40.00,8,4,18,0.00
2013-5-14,62.0,53.0,48.0,45.0,37.1,27.0,80,57,27,0.00,40.00,7,2,16,0.00
2013-5-15,58.0,51.8,42.0,35.0,26.7,20.0,72,41,24,0.00,40.00,6,4,15,0.00
2013-5-17,46.0,40.4,34.0,36.0,32.2,30.0,88,73,61,0.00,40.00,4,2,12,0.00
2013-5-18,52.0,44.2,37.0,33.0,20.8,-9.0,75,44,11,0.00,40.00,3,2,11,0.00
2013-5-19,58.0,44.6,37.0,37.0,26.4,11.0,75,51,15,0.00,40.00,9,4,17,0.00
2013-5-20,62.0,49.4,40.0,31.0,21.4,14.0,48,34,18,0.00,40.00,11,5,23,0.00
2013-5-21,54.0,47.4,36.0,34.0,24.8,14.0,52,42,27,0.00,40.00,9,5,19,0.00
2013-5-22,43.0,36.3,29.0,28.0,20.3,12.0,82,55,30,0.00,40.00,8,4,13,0.00
2013-5-23,43.0,34.4,27.0,26.0,18.5,9.0,75,53,31,0.00,40.00,7,4,14,0.00
2013-5-24,51.0,44.5,37.0,29.0,18.1,-6.0,58,37,11,0.00,40.00,5,3,16,0.00
2013-5-25,51.0,42.5,37.0,33.0,23.8,6.0,77,49,23,0.00,40.00,8,4,17,0.00
2013-5-26,50.0,41.5,36.0,36.0,28.3,21.0,88,60,44,0.00,40.00,7,4,14,0.00
2013-5-27,46.0,39.5,35.0,38.0,28.8,18.0,96,69,37,0.00,40.00,8,4,13,0.00
2013-5-28,47.0,40.4,36.0,41.0,38.0,34.0,97,92,75,0.00,40.00,5,2,14,0.00
2013-5-29,49.0,41.6,35.0,41.0,37.1,33.0,96,85,69,0.00,40.00,7,3,11,0.00
2013-5-30,56.0,49.3,42.0,37.0,28.5,12.0,72,46,24,0.00,40.00,4,3,11,0.00
2013-5-31,67.0,56.4,48.0,41.0,15.5,-22.0,43,23,4,0.00,40.00,6,3,11,0.00
2013-6-1,66.0,58.6,55.0,40.0,26.3,13.0,51,31,18,0.00,40.00,6,3,12,0.00
2013-6-2,65.0,58.9,54.0,38.0,34.4,30.0,51,40,30,0.00,40.00,8,4,14,0.00
2013-6-3,67.0,58.6,52.0,46.0,36.0,30.0,65,44,28,0.00,40.00,7,4,16,0.00
2013-6-4,70.0,61.6,58.0,48.0,32.8,22.0,60,36,24,0.00,40.00,5,3,9,0.00
2013-6-5,72.0,65.3,59.0,51.0,38.0,24.0,59,38,22,0.00,40.00,8,3,17,0.00
2013-6-6,72.0,64.8,62.0,41.0,34.7,24.0,44,34,22,0.00,40.00,5,2,17,0.00
2013-6-7,73.0,67.6,64.0,30.0,21.3,12.0,24,17,11,0.00,40.00,4,2,10,0.00
2013-6-8,72.0,68.4,65.0,54.0,34.7,14.0,58,31,12,0.00,40.00,8,4,16,0.00
2013-6-9,77.0,66.8,59.0,56.0,42.7,29.0,78,47,23,0.00,40.00,6,2,11,0.00
2013-6-10,60.0,55.4,50.0,52.0,41.7,24.0,79,61,35,0.00,40.00,5,2,12,0.00
2013-6-11,61.0,53.3,46.0,39.0,33.8,24.0,58,48,39,0.00,40.00,11,6,19,0.00
2013-6-12,61.0,53.7,44.0,42.0,32.1,20.0,60,45,29,0.00,40.00,12,7,24,0.00
2013-6-13,56.0,49.1,41.0,27.0,11.2,-12.0,46,23,9,0.00,40.00,7,4,12,0.00
2013-6-14,61.0,52.2,43.0,35.0,22.8,7.0,46,32,15,0.00,40.00,9,5,17,0.00
2013-6-15,60.0,52.5,48.0,30.0,23.0,18.0,48,32,23,0.00,40.00,7,3,11,0.00
2013-6-16,62.0,54.6,48.0,33.0,26.3,15.0,50,34,20,0.00,40.00,6,3,13,0.00
2013-6-17,61.0,54.0,46.0,35.0,29.8,19.0,65,41,22,0.00,40.00,4,3,11,0.00
2013-6-18,54.0,46.6,36.0,34.0,26.6,19.0,76,47,35,0.00,40.00,11,6,21,0.00
2013-6-19,50.0,41.2,33.0,29.0,18.2,7.0,68,41,25,0.00,40.00,8,4,13,0.00
2013-6-20,52.0,45.6,40.0,24.0,15.8,0.0,52,31,17,0.00,40.00,5,2,10,0.00
2013-6-22,62.0,57.2,51.0,35.0,31.7,26.0,48,38,31,0.00,40.00,5,3,12,0.00
2013-6-23,56.0,49.2,41.0,43.0,34.2,27.0,93,59,38,0.00,40.00,9,4,17,0.00
2013-6-24,42.0,40.9,39.0,41.0,39.5,38.0,97,95,88,0.00,40.00,12,6,19,0.00
2013-6-25,47.0,43.6,43.0,47.0,43.0,42.0,97,97,97,0.00,40.00,10,7,18,0.00
2013-6-26,61.0,53.8,47.0,54.0,49.6,45.0,97,86,72,0.00,40.00,11,5,20,0.00
2013-6-27,70.0,62.5,55.0,56.0,48.6,38.0,80,62,42,0.00,40.00,4,3,9,0.00
2013-6-28,75.0,70.4,62.0,53.0,47.5,40.0,60,45,33,0.00,40.00,6,2,10,0.00
2013-6-29,75.0,68.9,62.0,48.0,44.8,40.0,57,43,28,0.00,40.00,4,2,10,0.00
2013-6-30,73.0,68.6,66.0,50.0,46.7,42.0,51,45,38,0.00,40.00,5,3,11,0.00
2013-7-1,72.0,69.5,67.0,43.0,39.0,35.0,42,33,26,0.00,40.00,6,4,10,0.00
2013-7-2,79.0,71.9,68.0,53.0,41.8,36.0,52,35,28,0.00,40.00,9,5,20,0.00
2013-7-3,78.0,68.9,64.0,57.0,48.2,38.0,66,49,34,0.00,40.00,7,4,13,0.00
2013-7-4,76.0,69.9,64.0,52.0,47.6,42.0,61,45,36,0.00,40.00,7,3,14,0.00
2013-7-5,72.0,66.4,61.0,47.0,39.8,29.0,60,40,22,0.00,40.00,13,9,26,0.00
2013-7-6,68.0,61.3,58.0,40.0,34.9,28.0,47,37,28,0.00,40.00,12,6,23,0.00
2013-7-7,70.0,63.2,58.0,42.0,32.9,25.0,52,33,26,0.00,40.00,9,6,18,0.00
2013-7-8,70.0,62.7,57.0,37.0,30.3,16.0,47,30,18,0.00,40.00,9,6,19,0.00
2013-7-9,70.0,64.8,59.0,32.0,28.4,16.0,33,26,18,0.00,40.00,6,3,13,0.00
2013-7-10,70.0,62.7,59.0,35.0,29.9,24.0,36,29,24,0.00,40.00,8,5,20,0.00
2013-7-11,66.0,60.0,55.0,40.0,34.3,30.0,46,38,29,0.00,40.00,10,6,20,0.00
2013-7-12,67.0,58.8,54.0,39.0,32.8,27.0,45,38,25,0.00,40.00,6,4,11,0.00
2013-7-13,65.0,59.7,55.0,35.0,34.2,33.0,44,39,31,0.00,40.00,4,3,10,0.00
2013-7-14,70.0,62.2,56.0,39.0,33.0,23.0,46,34,26,0.00,40.00,5,3,12,0.00
2013-7-15,69.0,61.8,58.0,41.0,36.0,31.0,48,38,34,0.00,40.00,4,2,10,0.00
2013-7-16,65.0,58.2,53.0,40.0,32.5,25.0,59,38,30,0.00,40.00,8,4,16,0.00
2013-7-17,67.0,57.6,53.0,41.0,34.1,20.0,53,42,26,0.00,40.00,5,3,11,0.00
2013-7-18,72.0,70.0,69.0,40.0,39.2,38.0,33,32,32,0.00,40.00,2,2,7,0.00
2013-7-19,76.0,70.5,67.0,46.0,41.0,23.0,48,36,17,0.00,40.00,2,2,6,0.00
2013-7-20,80.0,77.0,68.0,46.0,40.8,30.0,30,28,25,0.00,40.00,3,2,9,0.00
2013-7-21,67.0,67.0,67.0,48.0,48.0,48.0,51,51,51,0.00,40.00,1,1,4,0.00
2013-7-22,74.0,65.9,58.0,46.0,41.3,38.0,65,41,30,0.00,40.00,10,2,20,0.00
2013-7-23,64.0,61.2,58.0,47.0,42.0,38.0,65,50,38,0.00,40.00,10,2,20,0.00
2013-7-24,71.0,64.4,57.0,48.0,44.4,41.0,60,49,41,0.00,40.00,5,2,9,0.00
2013-7-25,73.0,67.2,63.0,51.0,44.2,37.0,47,43,38,0.00,40.00,5,2,11,0.00
2013-7-26,74.0,67.5,61.0,51.0,46.5,40.0,55,47,38,0.00,40.00,3,2,9,0.00
2013-7-27,73.0,66.3,58.0,44.0,40.8,34.0,55,40,30,0.00,40.00,4,2,11,0.00
2013-7-28,70.0,62.6,57.0,42.0,39.0,34.0,54,42,28,0.00,40.00,4,2,9,0.00
2013-7-29,68.0,59.9,56.0,36.0,33.1,28.0,46,37,27,0.00,40.00,9,5,15,0.00
2013-7-30,67.0,59.3,54.0,38.0,35.1,32.0,50,41,27,0.00,40.00,10,4,15,0.00
2013-7-31,66.0,60.6,53.0,39.0,35.0,23.0,49,39,26,0.00,40.00,4,2,11,0.00
2013-8-1,63.0,55.1,49.0,26.0,22.9,18.0,40,29,20,0.00,40.00,6,3,16,0.00
2013-8-2,65.0,59.5,52.0,31.0,26.1,20.0,43,30,18,0.00,40.00,4,3,11,0.00
2013-8-3,67.0,57.8,53.0,35.0,31.6,26.0,47,37,28,0.00,40.00,4,2,12,0.00
2013-8-4,68.0,57.8,55.0,35.0,31.0,24.0,45,37,26,0.00,40.00,5,3,9,0.00
2013-8-5,69.0,60.4,57.0,36.0,32.5,23.0,44,36,22,0.00,40.00,4,2,12,0.00
2013-8-6,69.0,61.2,53.0,36.0,33.4,25.0,48,36,23,0.00,40.00,4,2,11,0.00
2013-8-7,61.0,54.1,49.0,40.0,36.5,31.0,68,52,42,0.00,40.00,4,2,11,0.00
2013-8-8,58.0,49.8,47.0,37.0,35.1,34.0,69,57,43,0.00,40.00,3,2,8,0.00
2013-8-9,62.0,54.6,47.0,40.0,33.6,27.0,62,47,29,0.00,40.00,5,3,12,0.00
2013-8-10,61.0,52.0,45.0,37.0,30.3,23.0,66,45,30,0.00,40.00,6,3,12,0.00
2013-8-11,63.0,53.0,49.0,35.0,28.8,24.0,57,40,26,0.00,40.00,3,2,9,0.00
2013-8-12,66.0,56.5,54.0,36.0,34.4,30.0,49,44,33,0.00,40.00,5,2,14,0.00
2013-8-13,69.0,57.7,55.0,32.0,26.3,20.0,38,31,18,0.00,40.00,4,2,9,0.00
2013-8-14,63.0,59.6,58.0,32.0,24.8,15.0,36,27,18,0.00,40.00,4,2,7,0.00
2013-8-15,71.0,53.5,56.0,30.0,3.0,-99.9,30,18,12,0.00,40.00,8,4,22,0.00
2013-8-16,71.0,58.8,55.0,30.0,17.2,-99.9,31,22,14,0.00,40.00,7,2,11,0.00
2013-8-17,74.0,64.0,58.0,36.0,31.4,25.0,38,30,22,0.00,40.00,6,2,13,0.00
2013-8-18,76.0,66.7,61.0,39.0,34.2,30.0,36,30,22,0.00,40.00,7,3,13,0.00
2013-8-19,70.0,66.2,64.0,43.0,37.6,31.0,45,35,24,0.00,40.00,7,3,13,0.00
2013-8-20,73.0,63.2,61.0,42.0,34.3,-99.9,47,38,28,0.00,40.00,6,3,13,0.00
2013-8-21,70.0,62.4,58.0,45.0,41.3,40.0,55,46,34,0.00,40.00,9,5,18,0.00
2013-8-22,67.0,59.6,54.0,41.0,36.6,32.0,54,43,30,0.00,40.00,16,5,29,0.00
2013-8-23,65.0,57.0,53.0,36.0,29.6,24.0,51,35,29,0.00,40.00,8,4,17,0.00
2013-8-24,63.0,55.0,50.0,37.0,30.0,23.0,63,40,24,0.00,40.00,9,5,15,0.00
2013-8-25,59.0,53.5,49.0,42.0,37.5,28.0,75,56,41,0.00,40.00,10,5,18,0.00
2013-8-26,64.0,56.8,50.0,43.0,37.3,28.0,64,49,36,0.00,40.00,12,6,22,0.00
2013-8-27,63.0,55.3,53.0,34.0,26.1,23.0,38,32,26,0.00,40.00,8,3,13,0.00
2013-8-28,64.0,58.9,55.0,48.0,43.4,39.0,71,57,41,0.00,40.00,8,4,18,0.00
2013-8-29,68.0,58.8,53.0,40.0,37.0,31.0,58,45,27,0.00,40.00,8,5,18,0.00
2013-8-30,63.0,61.6,59.0,35.0,32.9,30.0,39,34,30,0.00,40.00,4,3,9,0.00
2013-8-31,73.0,64.5,59.0,36.0,29.5,20.0,42,27,20,0.00,40.00,5,2,11,0.00
2013-9-1,68.0,59.5,54.0,47.0,38.1,20.0,76,47,21,0.00,40.00,4,2,9,0.00
2013-9-2,64.0,57.2,53.0,50.0,47.7,46.0,84,71,59,0.00,40.00,13,6,21,0.00
2013-9-3,66.0,57.4,54.0,49.0,45.8,41.0,73,66,53,0.00,40.00,10,6,19,0.00
2013-9-4,67.0,59.2,55.0,46.0,43.5,40.0,64,57,46,0.00,40.00,8,5,17,0.00
2013-9-5,64.0,56.8,52.0,45.0,40.7,36.0,70,56,38,0.00,40.00,10,7,26,0.00
2013-9-6,69.0,58.7,52.0,38.0,35.7,28.0,57,43,32,0.00,40.00,9,5,16,0.00
2013-9-7,71.0,61.8,56.0,38.0,32.5,26.0,50,34,22,0.00,40.00,7,3,15,0.00
2013-9-8,72.0,68.1,58.0,31.0,30.0,29.0,35,24,22,0.00,40.00,4,3,11,0.00
2013-9-9,73.0,65.8,60.0,35.0,29.7,24.0,37,26,18,0.00,40.00,5,3,11,0.00
2013-9-10,74.0,63.1,58.0,36.0,28.7,23.0,42,28,17,0.00,40.00,7,4,15,0.00
2013-9-11,67.0,59.4,57.0,38.0,35.7,34.0,47,41,29,0.00,40.00,2,1,7,0.00
2013-9-12,65.0,59.2,56.0,43.0,41.2,36.0,60,52,34,0.00,40.00,3,2,5,0.00
2013-9-13,66.0,60.6,57.0,46.0,40.8,35.0,55,48,37,0.00,40.00,4,2,9,0.00
2013-9-14,73.0,63.3,58.0,44.0,39.7,35.0,59,42,31,0.00,40.00,4,2,12,0.00
2013-9-15,68.0,59.9,55.0,39.0,35.8,30.0,52,41,28,0.00,40.00,11,6,22,0.00
2013-9-16,57.0,54.1,50.0,39.0,31.9,30.0,66,43,38,0.00,40.00,11,9,19,0.00
2013-9-17,56.0,48.5,41.0,41.0,33.9,23.0,75,58,31,0.00,40.00,13,6,24,0.00
2013-9-18,52.0,52.0,52.0,21.0,21.0,21.0,29,29,29,0.00,40.00,6,6,12,0.00
2013-9-19,68.0,57.8,51.0,31.0,24.4,18.0,40,28,17,0.00,40.00,7,4,13,0.00
2013-9-20,62.0,53.0,41.0,37.0,24.6,15.0,78,37,21,0.00,40.00,11,6,28,0.00
2013-9-21,42.0,37.1,29.0,38.0,32.8,28.0,97,86,67,0.00,40.00,12,7,31,0.00
2013-9-22,45.0,32.4,29.0,34.0,29.8,28.0,97,91,60,0.00,40.00,1,0,3,0.00
2013-9-23,61.0,50.2,44.0,39.0,30.0,19.0,66,47,26,0.00,40.00,4,2,11,0.00
2013-9-24,54.0,46.4,35.0,41.0,32.3,20.0,95,63,32,0.00,40.00,9,5,15,0.00
2013-9-25,38.0,32.6,28.0,33.0,28.2,24.0,97,85,62,0.00,40.00,7,3,13,0.00
2013-9-26,40.0,32.5,27.0,22.0,19.8,17.0,77,61,40,0.00,40.00,10,5,19,0.00
2013-9-27,52.0,41.5,31.0,28.0,21.8,17.0,68,47,30,0.00,40.00,6,3,12,0.00
2013-9-28,55.0,48.9,42.0,29.0,25.1,13.0,47,40,27,0.00,40.00,8,3,13,0.00
2013-9-29,54.0,45.6,41.0,32.0,24.2,13.0,66,44,27,0.00,40.00,10,5,22,0.00
2013-9-30,52.0,44.3,40.0,34.0,30.7,26.0,78,60,38,0.00,40.00,10,4,16,0.00
2013-10-1,54.0,48.3,46.0,42.0,35.8,26.0,80,63,44,0.00,40.00,4,2,9,0.00
2013-10-2,51.0,44.7,38.0,36.0,28.1,19.0,78,53,34,0.00,40.00,5,3,13,0.00
2013-10-3,46.0,38.3,32.0,23.0,17.0,8.0,58,42,34,0.00,40.00,8,4,19,0.00
2013-10-4,49.0,38.4,31.0,13.0,8.5,3.0,47,31,16,0.00,40.00,16,10,30,0.00
2013-10-5,62.0,57.3,50.0,23.0,19.1,13.0,30,23,16,0.00,40.00,6,2,11,0.00
2013-10-6,62.0,53.4,47.0,19.0,14.0,3.0,33,22,12,0.00,40.00,5,2,8,0.00
2013-10-7,58.0,49.8,44.0,19.0,13.2,2.0,31,23,13,0.00,40.00,4,2,9,0.00
2013-10-8,53.0,44.3,37.0,23.0,14.7,7.0,55,31,22,0.00,40.00,4,2,11,0.00
2013-10-9,39.0,35.7,32.0,27.0,22.9,16.0,71,60,41,0.00,40.00,6,3,15,0.00
2013-10-10,46.0,38.2,33.0,33.0,27.8,23.0,92,67,44,0.00,40.00,5,2,13,0.00
2013-10-11,50.0,40.8,35.0,32.0,24.7,18.0,79,54,36,0.00,40.00,4,2,11,0.00
2013-10-12,49.0,40.0,34.0,31.0,27.1,22.0,80,61,39,0.00,40.00,5,3,12,0.00
2013-10-13,46.0,36.5,31.0,30.0,27.3,23.0,96,71,43,0.00,40.00,7,4,14,0.00
2013-10-14,53.0,43.4,32.0,25.0,15.8,3.0,73,35,19,0.00,40.00,7,3,16,0.00
2013-10-15,50.0,45.1,39.0,20.0,15.0,12.0,46,30,25,0.00,40.00,8,6,16,0.00
2013-10-16,55.0,46.4,41.0,25.0,19.1,3.0,52,35,18,0.00,40.00,8,3,14,0.00
2013-10-17,56.0,47.6,42.0,24.0,17.7,2.0,47,31,15,0.00,40.00,6,2,15,0.00
2013-10-18,62.0,52.1,44.0,25.0,14.1,-1.0,39,23,10,0.00,40.00,6,2,13,0.00
2013-10-19,61.0,52.8,47.0,22.0,17.8,11.0,33,26,14,0.00,40.00,5,2,12,0.00
2013-10-20,64.0,54.6,49.0,27.0,16.1,6.0,33,22,14,0.00,40.00,6,3,12,0.00
2013-10-21,63.0,53.9,49.0,23.0,14.0,8.0,29,21,13,0.00,40.00,9,4,16,0.00
2013-10-22,62.0,54.1,50.0,17.0,7.4,0.0,25,15,12,0.00,40.00,3,1,9,0.00
2013-10-23,62.0,53.8,49.0,18.0,14.4,11.0,29,21,14,0.00,40.00,5,2,9,0.00
2013-10-24,59.0,52.1,48.0,16.0,12.3,9.0,28,20,16,0.00,40.00,4,2,9,0.00
2013-10-25,59.0,53.2,47.0,18.0,11.9,6.0,26,19,14,0.00,40.00,3,2,9,0.00
2013-10-26,61.0,52.4,48.0,20.0,12.4,8.0,29,20,13,0.00,40.00,6,4,11,0.00
2013-10-27,53.0,44.4,26.0,29.0,16.7,8.0,96,39,18,0.00,40.00,15,5,27,0.00
2013-10-28,29.0,24.7,24.0,28.0,21.5,-99.9,96,95,94,0.00,40.00,8,3,17,0.00
2013-10-29,30.0,26.3,25.0,29.0,25.2,23.0,96,95,94,0.00,40.00,6,2,10,0.00
2013-10-30,40.0,30.6,24.0,36.0,25.1,17.0,95,82,43,0.00,40.00,6,2,9,0.00
2013-10-31,52.0,46.3,37.0,24.0,19.8,8.0,47,35,27,0.00,40.00,6,4,11,0.00
2013-11-1,57.0,50.8,47.0,27.0,20.1,12.0,42,30,21,0.00,40.00,4,2,9,0.00
2013-11-2,50.0,42.9,37.0,27.0,20.0,14.0,58,41,26,0.00,40.00,6,3,12,0.00
2013-11-3,42.0,36.4,32.0,34.0,30.2,22.0,95,79,55,0.00,40.00,5,2,12,0.00
2013-11-4,36.0,29.8,25.0,26.0,13.7,5.0,77,52,30,0.00,40.00,7,4,14,0.00
2013-11-5,49.0,36.6,28.0,20.0,9.6,5.0,42,33,23,0.00,40.00,12,7,18,0.00
2013-11-6,54.0,48.4,44.0,30.0,24.9,18.0,52,40,32,0.00,40.00,4,2,7,0.00
2013-11-7,51.0,45.0,40.0,21.0,13.7,6.0,38,28,21,0.00,40.00,7,4,15,0.00
2013-11-8,52.0,44.7,40.0,27.0,17.8,5.0,55,35,22,0.00,40.00,5,3,13,0.00
2013-11-9,53.0,47.4,43.0,24.0,20.5,15.0,42,34,30,0.00,40.00,6,3,13,0.00
2013-11-10,45.0,45.0,45.0,17.0,17.0,17.0,31,31,31,0.00,40.00,5,5,13,0.00
2013-11-12,52.0,48.1,46.0,25.0,21.3,17.0,44,35,26,0.00,40.00,7,3,13,0.00
2013-11-13,57.0,47.6,43.0,32.0,27.5,20.0,61,46,34,0.00,40.00,8,3,14,0.00
2013-11-14,51.0,44.2,35.0,27.0,21.6,14.0,69,42,30,0.00,40.00,4,2,10,0.00
2013-11-15,41.0,34.9,32.0,31.0,26.5,22.0,92,72,48,0.00,40.00,5,2,11,0.00
2013-11-16,39.0,33.0,29.0,29.0,25.6,19.0,97,76,47,0.00,40.00,5,2,10,0.00
2013-11-17,47.0,39.9,34.0,32.0,21.2,13.0,68,48,35,0.00,40.00,4,2,8,0.00
2013-11-18,43.0,37.1,32.0,31.0,28.0,22.0,93,71,42,0.00,40.00,10,5,20,0.00
2013-11-19,35.0,32.2,30.0,34.0,31.3,29.0,97,96,94,0.00,40.00,6,4,12,0.00
2013-11-20,33.0,30.9,30.0,32.0,30.0,29.0,97,97,97,0.00,40.00,3,0,6,0.00
2013-11-21,30.0,23.4,18.0,29.0,19.9,12.0,97,87,68,0.00,40.00,15,6,36,0.00
2013-11-22,29.0,24.5,21.0,12.0,4.6,-1.0,68,43,28,0.00,40.00,16,14,39,0.00
2013-11-23,35.0,29.0,25.0,11.0,5.1,1.0,40,35,30,0.00,40.00,8,5,21,0.00
2013-11-24,40.0,33.8,27.0,25.0,10.6,5.0,54,38,30,0.00,40.00,5,3,11,0.00
2013-11-25,52.0,47.0,42.0,30.0,21.0,12.0,58,37,21,0.00,40.00,6,3,10,0.00
2013-11-26,46.0,46.0,46.0,14.0,14.0,14.0,27,27,27,0.00,40.00,4,4,7,0.00
2013-11-27,45.0,39.8,35.0,24.0,20.2,15.0,62,46,37,0.00,40.00,5,3,12,0.00
2013-11-28,42.0,36.1,33.0,28.0,23.0,18.0,79,60,43,0.00,40.00,5,2,11,0.00
2013-11-29,44.0,36.5,34.0,29.0,22.4,14.0,78,57,36,0.00,40.00,6,2,10,0.00
2013-11-30,45.0,39.0,35.0,28.0,19.5,14.0,61,46,34,0.00,40.00,7,2,10,0.00
2013-12-1,52.0,43.9,39.0,25.0,18.3,13.0,41,36,29,0.00,40.00,4,2,7,0.00
2013-12-2,45.0,39.6,32.0,27.0,16.5,8.0,81,42,25,0.00,40.00,5,3,14,0.00
2013-12-3,32.0,22.2,9.0,30.0,20.0,5.0,96,91,81,0.00,40.00,5,3,18,0.00
2013-12-4,21.0,11.9,7.0,12.0,5.4,1.0,92,76,46,0.00,40.00,10,4,19,0.00
2013-12-5,21.0,13.9,10.0,10.0,6.6,3.0,90,74,50,0.00,40.00,2,1,6,0.00
2013-12-6,20.0,14.5,12.0,12.0,-1.8,-17.0,90,52,21,0.00,40.00,13,5,20,0.00
2013-12-7,15.0,11.4,8.0,13.0,8.7,5.0,91,89,87,0.00,40.00,10,4,24,0.00
2013-12-8,22.0,11.9,5.0,19.0,4.4,-10.0,86,74,35,0.00,40.00,7,3,13,0.00
2013-12-9,34.0,25.6,16.0,3.0,0.9,-5.0,54,36,24,0.00,40.00,7,5,19,0.00
2013-12-10,43.0,39.8,38.0,13.0,11.0,9.0,32,30,29,0.00,40.00,2,1,5,0.00
2013-12-11,45.0,38.4,33.0,13.0,7.4,4.0,34,28,20,0.00,40.00,5,3,8,0.00
2013-12-12,43.0,36.3,31.0,10.0,6.6,-1.0,35,29,20,0.00,40.00,4,3,8,0.00
2013-12-13,44.0,35.3,30.0,16.0,7.6,-8.0,48,32,18,0.00,40.00,6,3,13,0.00
2013-12-14,52.0,45.2,41.0,2.0,-2.6,-6.0,14,13,13,0.00,40.00,8,4,15,0.00
2013-12-15,51.0,49.7,49.0,7.0,-3.0,-5.0,17,11,10,0.00,40.00,1,1,1,0.00
2013-12-16,51.0,49.6,48.0,7.0,4.8,3.0,17,16,14,0.00,40.00,5,3,9,0.00
2013-12-17,51.0,49.8,48.0,13.0,11.4,10.0,24,21,19,0.00,40.00,7,4,10,0.00
2013-12-18,47.0,41.1,29.0,28.0,20.5,10.0,70,45,22,0.00,40.00,9,4,16,0.00
2013-12-19,29.0,23.0,17.0,24.0,15.9,4.0,91,74,50,0.00,40.00,11,6,23,0.00
2013-12-20,36.0,32.7,19.0,26.0,20.7,4.0,71,61,50,0.00,40.00,8,4,10,0.00
2013-12-21,37.0,34.0,32.0,27.0,19.7,11.0,79,57,36,0.00,40.00,6,3,11,0.00
2013-12-22,43.0,37.7,32.0,26.0,21.0,11.0,66,51,36,0.00,40.00,6,4,21,0.00
2013-12-23,49.0,42.0,38.0,26.0,19.6,6.0,54,41,20,0.00,40.00,4,2,9,0.00
2013-12-24,44.0,42.0,40.0,20.0,15.4,6.0,44,34,20,0.00,40.00,3,3,5,0.00
2013-12-25,54.0,48.9,46.0,10.0,6.0,2.0,21,17,14,0.00,40.00,4,1,6,0.00
2013-12-26,48.0,47.5,47.0,15.0,14.0,13.0,27,26,24,0.00,40.00,4,2,5,0.00
2013-12-27,49.0,43.8,39.0,1.0,-4.4,-12.0,17,13,10,0.00,40.00,3,2,7,0.00
2013-12-28,42.0,36.4,30.0,11.0,1.8,-10.0,44,25,12,0.00,40.00,14,7,21,0.00
2013-12-29,52.0,46.7,40.0,9.0,1.2,-13.0,21,15,10,0.00,40.00,6,3,11,0.00
2013-12-30,50.0,43.9,41.0,15.0,8.3,-7.0,33,23,12,0.00,40.00,5,2,9,0.00
2013-12-31,48.0,43.6,41.0,4.0,-3.6,-10.0,17,14,11,0.00,40.00,4,2,9,0.00
2014-1-1,51.0,46.1,42.0,23.0,20.8,16.0,45,37,24,0.00,40.00,6,3,8,0.00
2014-1-2,51.0,44.2,41.0,23.0,16.5,10.0,40,33,26,0.00,40.00,4,2,8,0.00